Time;durP1;ratioP1;P1;durP2;ratioP2;P2;SDS_P1;SDS_P2;PMS_P1;PMS_P2;Temp;Humidity;BMP_temperature;BMP_pressure;BME280_temperature;BME280_humidity;BME280_pressure;Samples;Min_cycle;Max_cycle;Signal;HPM_P1;HPM_P2
2022/07/31 00:00:37;;;;;;;;;;;27.00;43.60;;;;;;4977662;28;20009;-67
2022/07/31 00:03:03;;;;;;;;;;;27.10;43.70;;;;;;4978660;28;19917;-68
2022/07/31 00:05:29;;;;;;;;;;;27.00;43.70;;;;;;4979356;28;20341;-69
2022/07/31 00:07:55;;;;;;;;;;;27.00;43.70;;;;;;4974693;28;19928;-68
2022/07/31 00:10:20;;;;;;;;;;;27.00;43.70;;;;;;4975653;28;19921;-69
2022/07/31 00:12:46;;;;;;;;;;;27.00;43.70;;;;;;4977482;28;19960;-68
2022/07/31 00:15:11;;;;;;;;;;;27.00;43.80;;;;;;4977979;28;20020;-68
2022/07/31 00:17:37;;;;;;;;;;;27.00;43.90;;;;;;4976908;28;19930;-69
2022/07/31 00:20:03;;;;;;;;;;;27.00;43.80;;;;;;4978943;28;20060;-68
2022/07/31 00:22:29;;;;;;;;;;;27.00;44.40;;;;;;4979155;28;19926;-68
2022/07/31 00:24:54;;;;;;;;;;;27.00;43.90;;;;;;4978430;28;20008;-68
2022/07/31 00:27:20;;;;;;;;;;;27.00;43.90;;;;;;4980295;28;20307;-68
2022/07/31 00:29:46;;;;;;;;;;;26.90;43.90;;;;;;4980052;28;20342;-69
2022/07/31 00:32:11;;;;;;;;;;;26.90;43.90;;;;;;4985893;28;19926;-69
2022/07/31 00:34:37;;;;;;;;;;;26.90;43.90;;;;;;4980725;28;19913;-69
2022/07/31 00:37:02;;;;;;;;;;;26.90;44.00;;;;;;4980153;28;20008;-69
2022/07/31 00:39:29;;;;;;;;;;;26.90;44.00;;;;;;4978796;28;19921;-68
2022/07/31 00:41:55;;;;;;;;;;;26.90;44.00;;;;;;4981508;28;20293;-69
2022/07/31 00:44:20;;;;;;;;;;;26.90;44.10;;;;;;4983132;28;19918;-68
2022/07/31 00:46:46;;;;;;;;;;;26.90;44.10;;;;;;4982298;28;20280;-68
2022/07/31 00:49:11;;;;;;;;;;;26.90;44.10;;;;;;4982148;28;20693;-68
2022/07/31 00:51:38;;;;;;;;;;;26.80;44.00;;;;;;4980698;28;19992;-69
2022/07/31 00:54:04;;;;;;;;;;;26.80;44.10;;;;;;4982084;28;20370;-68
2022/07/31 00:56:29;;;;;;;;;;;26.80;44.10;;;;;;4977690;28;20437;-69
2022/07/31 00:58:55;;;;;;;;;;;26.80;44.10;;;;;;4979588;28;20012;-69
2022/07/31 01:01:23;;;;;;;;;;;26.80;44.10;;;;;;4980712;28;20436;-69
2022/07/31 01:03:49;;;;;;;;;;;26.80;44.20;;;;;;4981852;28;19976;-69
2022/07/31 01:06:14;;;;;;;;;;;26.80;44.20;;;;;;4990759;28;19961;-68
2022/07/31 01:08:40;;;;;;;;;;;26.80;44.20;;;;;;4993328;28;19913;-68
2022/07/31 01:11:18;;;;;;;;;;;26.80;44.20;;;;;;4981175;28;19992;-69
2022/07/31 01:13:46;;;;;;;;;;;26.80;44.30;;;;;;4982273;28;20056;-66
2022/07/31 01:16:12;;;;;;;;;;;26.80;44.30;;;;;;4980268;28;20063;-68
2022/07/31 01:18:38;;;;;;;;;;;26.80;44.30;;;;;;4981060;28;20009;-68
2022/07/31 01:21:05;;;;;;;;;;;26.80;44.40;;;;;;4987808;28;19961;-69
2022/07/31 01:23:50;;;;;;;;;;;26.70;44.30;;;;;;4980554;28;19913;-68
2022/07/31 01:26:34;;;;;;;;;;;26.70;44.30;;;;;;4978468;28;19914;-69
2022/07/31 01:29:03;;;;;;;;;;;26.70;44.30;;;;;;4980048;28;20013;-69
2022/07/31 01:31:48;;;;;;;;;;;26.70;44.30;;;;;;4980146;28;19926;-69
2022/07/31 01:34:26;;;;;;;;;;;26.70;44.40;;;;;;4978221;28;19928;-68
2022/07/31 01:37:01;;;;;;;;;;;26.70;44.40;;;;;;4986947;28;20332;-68
2022/07/31 01:39:29;;;;;;;;;;;26.70;44.40;;;;;;4990075;28;19922;-69
2022/07/31 01:41:56;;;;;;;;;;;26.70;44.40;;;;;;4993554;28;19929;-68
2022/07/31 01:44:24;;;;;;;;;;;26.70;44.40;;;;;;4981921;28;19956;-68
2022/07/31 01:46:49;;;;;;;;;;;26.70;44.50;;;;;;4978646;28;19921;-69
2022/07/31 01:49:17;;;;;;;;;;;26.70;44.50;;;;;;4981111;28;20241;-68
2022/07/31 01:51:44;;;;;;;;;;;26.60;44.50;;;;;;4993825;28;20122;-69
2022/07/31 01:54:11;;;;;;;;;;;26.60;45.00;;;;;;4979010;28;20384;-68
2022/07/31 01:56:37;;;;;;;;;;;26.60;44.50;;;;;;4979811;28;20365;-69
2022/07/31 01:59:03;;;;;;;;;;;26.60;44.50;;;;;;4979911;28;20286;-68
2022/07/31 02:01:29;;;;;;;;;;;26.60;44.60;;;;;;4979507;28;19929;-69
2022/07/31 02:03:56;;;;;;;;;;;26.60;44.50;;;;;;4978994;28;19917;-68
2022/07/31 02:06:22;;;;;;;;;;;26.60;44.60;;;;;;4979454;28;20404;-69
2022/07/31 02:08:50;;;;;;;;;;;26.60;44.60;;;;;;4977863;28;19917;-69
2022/07/31 02:11:17;;;;;;;;;;;26.60;44.70;;;;;;4978647;28;19975;-69
2022/07/31 02:13:44;;;;;;;;;;;26.60;44.70;;;;;;4977813;28;20364;-68
2022/07/31 02:16:10;;;;;;;;;;;26.60;44.70;;;;;;4980480;28;19914;-68
2022/07/31 02:18:36;;;;;;;;;;;26.50;44.70;;;;;;4981513;28;20288;-69
2022/07/31 02:21:01;;;;;;;;;;;26.60;44.70;;;;;;4980803;28;19956;-68
2022/07/31 02:23:27;;;;;;;;;;;26.50;44.60;;;;;;4978743;28;20079;-68
2022/07/31 02:25:53;;;;;;;;;;;26.50;44.70;;;;;;4977953;28;20418;-69
2022/07/31 02:28:19;;;;;;;;;;;26.50;44.70;;;;;;4993866;28;19918;-68
2022/07/31 02:30:46;;;;;;;;;;;26.50;44.80;;;;;;4980338;28;20345;-68
2022/07/31 02:33:22;;;;;;;;;;;26.50;44.70;;;;;;4979282;28;20168;-69
2022/07/31 02:35:49;;;;;;;;;;;26.50;44.80;;;;;;4979187;28;19914;-68
2022/07/31 02:38:19;;;;;;;;;;;26.50;44.80;;;;;;4988295;28;19971;-69
2022/07/31 02:40:45;;;;;;;;;;;26.50;44.80;;;;;;4989381;28;19913;-69
2022/07/31 02:43:11;;;;;;;;;;;26.50;44.80;;;;;;4978526;28;20366;-70
2022/07/31 02:45:37;;;;;;;;;;;26.40;44.80;;;;;;4979556;28;20293;-68
2022/07/31 02:48:02;;;;;;;;;;;26.50;44.90;;;;;;4977491;28;19928;-69
2022/07/31 02:50:28;;;;;;;;;;;26.40;44.80;;;;;;4982282;28;19937;-69
2022/07/31 02:52:54;;;;;;;;;;;26.40;44.80;;;;;;4976676;28;20353;-69
2022/07/31 02:55:19;;;;;;;;;;;26.50;44.90;;;;;;4978021;28;20297;-68
2022/07/31 02:57:46;;;;;;;;;;;26.40;44.80;;;;;;4979099;28;20040;-68
2022/07/31 03:00:13;;;;;;;;;;;26.40;44.90;;;;;;4979406;28;19994;-69
2022/07/31 03:02:41;;;;;;;;;;;26.40;44.90;;;;;;4994254;28;19917;-69
2022/07/31 03:05:07;;;;;;;;;;;26.40;44.90;;;;;;4978572;28;19918;-68
2022/07/31 03:07:32;;;;;;;;;;;26.40;45.00;;;;;;4984621;28;20025;-69
2022/07/31 03:09:58;;;;;;;;;;;26.40;44.90;;;;;;4977363;28;19936;-68
2022/07/31 03:12:24;;;;;;;;;;;26.40;44.90;;;;;;4987937;28;19973;-69
2022/07/31 03:14:50;;;;;;;;;;;26.40;45.00;;;;;;4978488;28;19914;-69
2022/07/31 03:17:16;;;;;;;;;;;26.40;44.90;;;;;;4979351;28;19925;-69
2022/07/31 03:19:41;;;;;;;;;;;26.30;44.90;;;;;;4978036;28;20376;-68
2022/07/31 03:22:10;;;;;;;;;;;26.30;44.90;;;;;;4989911;28;19925;-68
2022/07/31 03:24:36;;;;;;;;;;;26.30;45.00;;;;;;4979373;28;19992;-69
2022/07/31 03:27:02;;;;;;;;;;;26.30;45.00;;;;;;4978662;28;20004;-69
2022/07/31 03:29:35;;;;;;;;;;;26.30;45.00;;;;;;4978972;28;20534;-69
2022/07/31 03:32:01;;;;;;;;;;;26.30;45.00;;;;;;4977611;28;20018;-68
2022/07/31 03:34:26;;;;;;;;;;;26.30;45.00;;;;;;4977199;28;19969;-68
2022/07/31 03:36:52;;;;;;;;;;;26.30;45.00;;;;;;4976698;28;20051;-68
2022/07/31 03:39:18;;;;;;;;;;;26.30;45.00;;;;;;4978244;28;20354;-69
2022/07/31 03:41:43;;;;;;;;;;;26.30;45.10;;;;;;4992044;28;20013;-68
2022/07/31 03:44:10;;;;;;;;;;;26.30;45.00;;;;;;4991909;28;20105;-68
2022/07/31 03:46:35;;;;;;;;;;;26.30;45.10;;;;;;4978369;28;19940;-68
2022/07/31 03:49:01;;;;;;;;;;;26.30;45.10;;;;;;4980498;28;19914;-68
2022/07/31 03:51:27;;;;;;;;;;;26.30;45.10;;;;;;4976269;28;19921;-68
2022/07/31 03:53:53;;;;;;;;;;;26.20;45.10;;;;;;4975720;28;19933;-68
2022/07/31 03:56:19;;;;;;;;;;;26.20;45.00;;;;;;4991483;28;20389;-69
2022/07/31 03:58:44;;;;;;;;;;;26.30;45.10;;;;;;4977718;28;19963;-68
2022/07/31 04:01:10;;;;;;;;;;;26.20;45.10;;;;;;4978563;28;19926;-68
2022/07/31 04:03:35;;;;;;;;;;;26.20;45.10;;;;;;4977543;28;19922;-68
2022/07/31 04:06:01;;;;;;;;;;;26.20;45.10;;;;;;4992043;28;19914;-68
2022/07/31 04:08:26;;;;;;;;;;;26.30;45.10;;;;;;4973618;28;19918;-68
2022/07/31 04:10:52;;;;;;;;;;;26.20;45.10;;;;;;4977610;28;20325;-69
2022/07/31 04:13:18;;;;;;;;;;;26.20;45.10;;;;;;4978427;28;19922;-68
2022/07/31 04:15:43;;;;;;;;;;;26.20;45.10;;;;;;4979065;28;19917;-70
2022/07/31 04:18:09;;;;;;;;;;;26.20;45.10;;;;;;4979062;28;20370;-70
2022/07/31 04:20:34;;;;;;;;;;;26.30;44.80;;;;;;4977929;28;19929;-70
2022/07/31 04:23:00;;;;;;;;;;;26.20;44.20;;;;;;4974670;28;20456;-70
2022/07/31 04:25:25;;;;;;;;;;;26.20;43.30;;;;;;4975448;28;19917;-70
2022/07/31 04:27:51;;;;;;;;;;;26.20;42.80;;;;;;4977560;28;19918;-70
2022/07/31 04:30:16;;;;;;;;;;;26.10;42.30;;;;;;4977590;28;20519;-70
2022/07/31 04:32:42;;;;;;;;;;;26.00;42.50;;;;;;4979597;28;20027;-70
2022/07/31 04:35:08;;;;;;;;;;;26.00;42.30;;;;;;4987400;28;20222;-70
2022/07/31 04:37:33;;;;;;;;;;;26.00;42.40;;;;;;4975559;28;19917;-69
2022/07/31 04:39:59;;;;;;;;;;;26.00;42.30;;;;;;4977512;28;20008;-71
2022/07/31 04:42:27;;;;;;;;;;;25.90;42.30;;;;;;4976458;28;19972;-70
2022/07/31 04:44:53;;;;;;;;;;;25.90;42.50;;;;;;4978077;28;19925;-70
2022/07/31 04:47:18;;;;;;;;;;;25.90;42.60;;;;;;4977448;28;20089;-70
2022/07/31 04:49:44;;;;;;;;;;;25.80;42.60;;;;;;4978585;28;19914;-70
2022/07/31 04:52:10;;;;;;;;;;;25.80;42.80;;;;;;4976364;28;19925;-70
2022/07/31 04:54:36;;;;;;;;;;;25.80;43.20;;;;;;4977327;28;19922;-70
2022/07/31 04:57:02;;;;;;;;;;;25.80;42.90;;;;;;4976691;28;19918;-71
2022/07/31 04:59:27;;;;;;;;;;;25.80;43.00;;;;;;4978373;28;20532;-70
2022/07/31 05:01:53;;;;;;;;;;;25.70;43.00;;;;;;4974384;28;19930;-70
2022/07/31 05:04:18;;;;;;;;;;;25.70;43.20;;;;;;4976439;28;19924;-70
2022/07/31 05:06:47;;;;;;;;;;;25.70;43.20;;;;;;4976230;28;19926;-70
2022/07/31 05:09:14;;;;;;;;;;;25.70;43.30;;;;;;4978876;28;20036;-70
2022/07/31 05:11:41;;;;;;;;;;;25.70;43.30;;;;;;4977112;28;20465;-70
2022/07/31 05:14:07;;;;;;;;;;;25.70;43.30;;;;;;4980820;28;20411;-70
2022/07/31 05:16:33;;;;;;;;;;;25.60;43.30;;;;;;4979596;28;19999;-70
2022/07/31 05:18:59;;;;;;;;;;;25.60;43.40;;;;;;4982185;28;20004;-70
2022/07/31 05:21:29;;;;;;;;;;;25.50;43.40;;;;;;4977502;28;19922;-70
2022/07/31 05:23:55;;;;;;;;;;;25.50;43.50;;;;;;4980987;28;20278;-70
2022/07/31 05:26:21;;;;;;;;;;;25.50;43.60;;;;;;4982282;28;19932;-70
2022/07/31 05:28:48;;;;;;;;;;;25.40;43.70;;;;;;4984268;28;19919;-70
2022/07/31 05:31:14;;;;;;;;;;;25.40;44.00;;;;;;4980213;28;19928;-70
2022/07/31 05:33:40;;;;;;;;;;;25.40;44.00;;;;;;4990054;28;19926;-70
2022/07/31 05:36:06;;;;;;;;;;;25.30;44.10;;;;;;4995691;28;19923;-69
2022/07/31 05:38:38;;;;;;;;;;;25.30;44.10;;;;;;4993815;28;20837;-70
2022/07/31 05:41:03;;;;;;;;;;;25.20;44.20;;;;;;4991100;28;20164;-70
2022/07/31 05:43:29;;;;;;;;;;;25.20;44.40;;;;;;4979131;28;19929;-70
2022/07/31 05:45:54;;;;;;;;;;;25.20;44.40;;;;;;4981254;28;19917;-70
2022/07/31 05:48:20;;;;;;;;;;;25.20;44.60;;;;;;4980839;28;19925;-70
2022/07/31 05:50:47;;;;;;;;;;;25.10;44.70;;;;;;4980372;28;19921;-70
2022/07/31 05:53:15;;;;;;;;;;;25.10;44.80;;;;;;4978856;28;19922;-70
2022/07/31 05:55:42;;;;;;;;;;;25.10;44.90;;;;;;4979667;28;20321;-69
2022/07/31 05:58:08;;;;;;;;;;;25.10;45.70;;;;;;4989112;28;20418;-69
2022/07/31 06:00:34;;;;;;;;;;;25.10;45.40;;;;;;4980853;28;19922;-70
2022/07/31 06:03:00;;;;;;;;;;;25.00;45.50;;;;;;4989766;28;19953;-70
2022/07/31 06:05:26;;;;;;;;;;;25.00;45.70;;;;;;4978747;28;19964;-70
2022/07/31 06:07:51;;;;;;;;;;;24.90;45.80;;;;;;4978560;28;19918;-69
2022/07/31 06:10:17;;;;;;;;;;;24.90;46.00;;;;;;4976224;28;19972;-70
2022/07/31 06:12:43;;;;;;;;;;;24.90;46.10;;;;;;4977750;28;19921;-70
2022/07/31 06:15:09;;;;;;;;;;;24.90;46.10;;;;;;4979530;28;20310;-70
2022/07/31 06:17:36;;;;;;;;;;;24.80;46.70;;;;;;4986524;28;20297;-70
2022/07/31 06:20:02;;;;;;;;;;;24.70;47.20;;;;;;4979429;28;20366;-70
2022/07/31 06:22:34;;;;;;;;;;;24.60;47.50;;;;;;4988336;28;19933;-69
2022/07/31 06:24:59;;;;;;;;;;;24.60;47.60;;;;;;4980474;28;20477;-70
2022/07/31 06:27:25;;;;;;;;;;;24.60;48.10;;;;;;4976519;28;20016;-70
2022/07/31 06:29:50;;;;;;;;;;;24.60;48.00;;;;;;4981094;28;19914;-70
2022/07/31 06:32:16;;;;;;;;;;;24.50;48.20;;;;;;4979134;28;19973;-69
2022/07/31 06:34:43;;;;;;;;;;;24.50;48.10;;;;;;4980360;28;20009;-70
2022/07/31 06:37:09;;;;;;;;;;;24.50;48.70;;;;;;4979011;28;19910;-69
2022/07/31 06:39:34;;;;;;;;;;;24.50;48.40;;;;;;4977872;28;19925;-69
2022/07/31 06:42:00;;;;;;;;;;;24.40;48.60;;;;;;4978020;28;19961;-69
2022/07/31 06:44:26;;;;;;;;;;;24.40;48.50;;;;;;4980167;28;21047;-70
2022/07/31 06:46:51;;;;;;;;;;;24.50;48.60;;;;;;4979794;28;19941;-70
2022/07/31 06:49:17;;;;;;;;;;;24.40;48.90;;;;;;4981382;28;19945;-69
2022/07/31 06:51:43;;;;;;;;;;;24.30;49.60;;;;;;4977733;28;20756;-70
2022/07/31 06:54:10;;;;;;;;;;;24.20;49.00;;;;;;4979085;28;20056;-69
2022/07/31 06:56:36;;;;;;;;;;;24.20;49.00;;;;;;4977005;28;20045;-70
2022/07/31 06:59:03;;;;;;;;;;;24.10;49.00;;;;;;4980088;28;19918;-69
2022/07/31 07:01:28;;;;;;;;;;;24.20;49.10;;;;;;4977737;28;19929;-69
2022/07/31 07:03:54;;;;;;;;;;;24.10;49.30;;;;;;4978077;28;20302;-69
2022/07/31 07:06:20;;;;;;;;;;;24.10;49.60;;;;;;4978254;28;19918;-69
2022/07/31 07:08:49;;;;;;;;;;;24.10;49.10;;;;;;4975529;28;19918;-69
2022/07/31 07:11:14;;;;;;;;;;;24.00;49.40;;;;;;4977639;28;19929;-69
2022/07/31 07:13:40;;;;;;;;;;;24.00;49.60;;;;;;4988056;28;19917;-68
2022/07/31 07:16:06;;;;;;;;;;;24.00;49.60;;;;;;4979995;28;19944;-68
2022/07/31 07:18:31;;;;;;;;;;;24.10;49.50;;;;;;4979880;28;20111;-68
2022/07/31 07:20:57;;;;;;;;;;;24.10;49.30;;;;;;4977179;28;20001;-68
2022/07/31 07:23:22;;;;;;;;;;;24.10;49.20;;;;;;4976394;28;20907;-68
2022/07/31 07:25:54;;;;;;;;;;;24.10;49.10;;;;;;4978793;28;19929;-68
2022/07/31 07:28:19;;;;;;;;;;;24.10;49.00;;;;;;4977203;28;20374;-68
2022/07/31 07:30:45;;;;;;;;;;;24.10;48.90;;;;;;4976978;28;19968;-68
2022/07/31 07:33:10;;;;;;;;;;;24.10;48.80;;;;;;4978718;28;21201;-68
2022/07/31 07:35:37;;;;;;;;;;;24.20;48.70;;;;;;4978228;28;19918;-68
2022/07/31 07:38:03;;;;;;;;;;;24.20;48.90;;;;;;4976460;28;19917;-68
2022/07/31 07:40:28;;;;;;;;;;;24.20;48.50;;;;;;4978874;28;19933;-68
2022/07/31 07:42:54;;;;;;;;;;;24.30;48.50;;;;;;4989691;28;19920;-68
2022/07/31 07:45:19;;;;;;;;;;;24.20;48.40;;;;;;4975438;28;20297;-68
2022/07/31 07:47:45;;;;;;;;;;;24.20;48.40;;;;;;4977031;28;20242;-68
2022/07/31 07:50:11;;;;;;;;;;;24.20;48.30;;;;;;4975621;28;20399;-68
2022/07/31 07:52:46;;;;;;;;;;;24.30;48.30;;;;;;4972464;28;20378;-68
2022/07/31 07:55:11;;;;;;;;;;;24.30;48.20;;;;;;4977700;28;19914;-68
2022/07/31 07:57:42;;;;;;;;;;;24.30;48.20;;;;;;4978648;28;20666;-68
2022/07/31 08:00:09;;;;;;;;;;;24.30;48.20;;;;;;4974210;28;19968;-69
2022/07/31 08:02:35;;;;;;;;;;;24.30;48.20;;;;;;4973774;28;19914;-68
2022/07/31 08:05:00;;;;;;;;;;;24.30;48.10;;;;;;4979458;28;19949;-68
2022/07/31 08:07:27;;;;;;;;;;;24.30;48.10;;;;;;4976561;28;20012;-68
2022/07/31 08:09:52;;;;;;;;;;;24.30;48.00;;;;;;4975171;28;19949;-68
2022/07/31 08:12:18;;;;;;;;;;;24.30;48.10;;;;;;4974578;28;20753;-68
2022/07/31 08:14:43;;;;;;;;;;;24.30;48.00;;;;;;4975970;28;19921;-69
2022/07/31 08:17:12;;;;;;;;;;;24.40;48.10;;;;;;4973942;28;19917;-69
2022/07/31 08:19:37;;;;;;;;;;;24.30;48.00;;;;;;4974298;28;19991;-68
2022/07/31 08:22:03;;;;;;;;;;;24.30;48.00;;;;;;4974615;28;21005;-68
2022/07/31 08:24:29;;;;;;;;;;;24.40;48.00;;;;;;4976013;28;19921;-68
2022/07/31 08:29:38;;;;;;;;;;;24.40;47.90;;;;;;4974625;28;20679;-68
2022/07/31 08:32:04;;;;;;;;;;;24.40;47.90;;;;;;4974967;28;19921;-68
2022/07/31 08:34:30;;;;;;;;;;;24.40;47.90;;;;;;4978356;28;19936;-68
2022/07/31 08:36:56;;;;;;;;;;;24.40;47.90;;;;;;4977348;28;19917;-68
2022/07/31 08:39:21;;;;;;;;;;;24.40;47.80;;;;;;4985842;28;19914;-68
2022/07/31 08:41:47;;;;;;;;;;;24.40;47.80;;;;;;4973636;28;19914;-68
2022/07/31 08:44:12;;;;;;;;;;;24.40;47.80;;;;;;4976710;28;21317;-68
2022/07/31 08:46:38;;;;;;;;;;;24.40;47.80;;;;;;4980118;28;20033;-68
2022/07/31 08:49:05;;;;;;;;;;;24.40;47.80;;;;;;4996990;28;20040;-68
2022/07/31 08:51:34;;;;;;;;;;;24.50;47.80;;;;;;4980617;28;20081;-68
2022/07/31 08:54:01;;;;;;;;;;;24.50;47.80;;;;;;4971034;28;19945;-68
2022/07/31 08:56:32;;;;;;;;;;;24.50;47.80;;;;;;4982992;28;19917;-68
2022/07/31 08:58:57;;;;;;;;;;;24.50;47.80;;;;;;4975980;28;20024;-68
2022/07/31 09:01:23;;;;;;;;;;;24.50;47.70;;;;;;4979374;28;20370;-68
2022/07/31 09:03:49;;;;;;;;;;;24.50;47.70;;;;;;4977171;28;19914;-68
2022/07/31 09:06:17;;;;;;;;;;;24.50;47.70;;;;;;4993093;28;19921;-68
2022/07/31 09:08:43;;;;;;;;;;;24.50;47.70;;;;;;4976059;28;19920;-68
2022/07/31 09:11:10;;;;;;;;;;;24.50;47.60;;;;;;4988779;28;19917;-68
2022/07/31 09:13:36;;;;;;;;;;;24.50;47.70;;;;;;4975327;28;19922;-68
2022/07/31 09:16:02;;;;;;;;;;;24.60;47.70;;;;;;4977278;28;20297;-68
2022/07/31 09:18:27;;;;;;;;;;;24.60;47.70;;;;;;4978679;28;20357;-68
2022/07/31 09:20:57;;;;;;;;;;;24.60;47.70;;;;;;4974250;28;20325;-69
2022/07/31 09:23:23;;;;;;;;;;;24.60;47.70;;;;;;4977234;28;20951;-68
2022/07/31 09:26:00;;;;;;;;;;;24.60;47.70;;;;;;4975345;28;20346;-68
2022/07/31 09:28:32;;;;;;;;;;;24.60;47.60;;;;;;4979651;28;20009;-68
2022/07/31 09:30:58;;;;;;;;;;;24.60;47.60;;;;;;4976379;28;19922;-68
2022/07/31 09:33:26;;;;;;;;;;;24.60;47.60;;;;;;4976117;28;19999;-69
2022/07/31 09:35:52;;;;;;;;;;;24.60;47.60;;;;;;4976782;28;20444;-68
2022/07/31 09:38:18;;;;;;;;;;;24.60;47.60;;;;;;4974250;28;19921;-69
2022/07/31 09:40:44;;;;;;;;;;;24.60;47.60;;;;;;4977588;28;19918;-69
2022/07/31 09:43:18;;;;;;;;;;;24.60;47.60;;;;;;4975413;28;19925;-69
2022/07/31 09:45:45;;;;;;;;;;;24.70;47.60;;;;;;4976619;28;20426;-69
2022/07/31 09:48:14;;;;;;;;;;;24.60;47.60;;;;;;4976829;28;19917;-69
2022/07/31 09:50:53;;;;;;;;;;;24.70;47.60;;;;;;4976184;28;19918;-68
2022/07/31 09:53:18;;;;;;;;;;;24.70;47.60;;;;;;4972156;28;20352;-68
2022/07/31 09:55:50;;;;;;;;;;;24.70;47.60;;;;;;4973954;28;19924;-68
2022/07/31 09:58:18;;;;;;;;;;;24.70;47.60;;;;;;4976273;28;19941;-68
2022/07/31 10:00:48;;;;;;;;;;;24.70;47.60;;;;;;4974704;28;19977;-68
2022/07/31 10:03:17;;;;;;;;;;;24.70;47.60;;;;;;4976151;28;19941;-68
2022/07/31 10:05:43;;;;;;;;;;;24.70;47.60;;;;;;4976213;28;20023;-68
2022/07/31 10:08:12;;;;;;;;;;;24.70;47.60;;;;;;4973571;28;19920;-68
2022/07/31 10:10:39;;;;;;;;;;;24.70;47.60;;;;;;4975392;28;19924;-68
2022/07/31 10:13:06;;;;;;;;;;;24.80;47.50;;;;;;4976308;28;19925;-68
2022/07/31 10:15:33;;;;;;;;;;;24.80;47.60;;;;;;4992872;28;20370;-69
2022/07/31 10:17:59;;;;;;;;;;;24.70;47.50;;;;;;4991754;28;19921;-68
2022/07/31 10:20:27;;;;;;;;;;;24.80;47.50;;;;;;4973278;28;19921;-69
2022/07/31 10:22:58;;;;;;;;;;;24.80;47.40;;;;;;4974916;28;19957;-68
2022/07/31 10:25:26;;;;;;;;;;;24.80;47.40;;;;;;4974166;28;19964;-68
2022/07/31 10:27:52;;;;;;;;;;;24.80;47.40;;;;;;4976569;28;19917;-68
2022/07/31 10:30:18;;;;;;;;;;;24.80;47.30;;;;;;4978073;28;19925;-68
2022/07/31 10:32:44;;;;;;;;;;;24.80;47.30;;;;;;4976350;28;19928;-68
2022/07/31 10:35:10;;;;;;;;;;;24.80;47.20;;;;;;4976373;28;19957;-68
2022/07/31 10:37:42;;;;;;;;;;;24.80;47.20;;;;;;4979468;28;20559;-68
2022/07/31 10:40:16;;;;;;;;;;;24.80;47.10;;;;;;4972105;28;19917;-68
2022/07/31 10:42:44;;;;;;;;;;;24.90;47.20;;;;;;4972290;28;19914;-68
2022/07/31 10:45:12;;;;;;;;;;;24.80;47.00;;;;;;4976187;28;20660;-71
2022/07/31 10:47:38;;;;;;;;;;;24.90;47.20;;;;;;4979797;28;19949;-71
2022/07/31 10:50:04;;;;;;;;;;;24.90;47.30;;;;;;4982168;28;19960;-69
2022/07/31 10:52:34;;;;;;;;;;;24.90;47.60;;;;;;4978666;28;19921;-68
2022/07/31 10:55:00;;;;;;;;;;;24.90;47.90;;;;;;4980750;28;20762;-68
2022/07/31 10:57:30;;;;;;;;;;;25.00;48.00;;;;;;4980788;28;20380;-69
2022/07/31 11:00:06;;;;;;;;;;;25.00;47.90;;;;;;4981860;28;20011;-69
2022/07/31 11:02:36;;;;;;;;;;;25.00;47.80;;;;;;4980167;28;19922;-68
2022/07/31 11:05:11;;;;;;;;;;;25.10;47.70;;;;;;4998332;28;19921;-68
2022/07/31 11:07:38;;;;;;;;;;;25.10;47.70;;;;;;4981535;28;19932;-67
2022/07/31 11:10:22;;;;;;;;;;;25.10;47.60;;;;;;4976579;28;19922;-67
2022/07/31 11:12:59;;;;;;;;;;;25.20;47.60;;;;;;4975208;28;20036;-69
2022/07/31 11:15:25;;;;;;;;;;;25.20;47.60;;;;;;4978608;28;20008;-70
2022/07/31 11:17:51;;;;;;;;;;;25.20;47.60;;;;;;4976200;28;19928;-69
2022/07/31 11:20:35;;;;;;;;;;;25.30;47.60;;;;;;4974408;28;20439;-68
2022/07/31 11:23:05;;;;;;;;;;;25.30;47.60;;;;;;4974009;28;19926;-68
2022/07/31 11:25:33;;;;;;;;;;;25.30;47.60;;;;;;4972687;28;19918;-69
2022/07/31 11:28:17;;;;;;;;;;;25.30;47.70;;;;;;4982850;28;20472;-70
2022/07/31 11:30:49;;;;;;;;;;;25.40;47.70;;;;;;4977733;28;19929;-70
2022/07/31 11:33:15;;;;;;;;;;;25.40;47.70;;;;;;4978959;28;20649;-69
2022/07/31 11:35:41;;;;;;;;;;;25.40;47.60;;;;;;4985097;28;19928;-68
2022/07/31 11:38:07;;;;;;;;;;;25.40;47.50;;;;;;4979945;28;19917;-69
2022/07/31 11:40:32;;;;;;;;;;;25.50;47.50;;;;;;4979751;28;20366;-68
2022/07/31 11:42:58;;;;;;;;;;;25.50;47.50;;;;;;4979633;28;20460;-68
2022/07/31 11:45:24;;;;;;;;;;;25.50;47.50;;;;;;4980423;28;19921;-69
2022/07/31 11:47:50;;;;;;;;;;;25.60;47.50;;;;;;4978233;28;19917;-70
2022/07/31 11:50:16;;;;;;;;;;;25.70;47.60;;;;;;4980405;28;19980;-71
2022/07/31 11:52:42;;;;;;;;;;;25.70;47.50;;;;;;4974015;28;20460;-69
2022/07/31 11:55:12;;;;;;;;;;;25.70;47.50;;;;;;4975539;28;19917;-70
2022/07/31 11:57:38;;;;;;;;;;;25.70;47.50;;;;;;4979475;28;20452;-70
2022/07/31 12:00:12;;;;;;;;;;;25.70;47.50;;;;;;4974081;28;20341;-70
2022/07/31 12:02:44;;;;;;;;;;;25.70;47.40;;;;;;4976926;28;19917;-70
2022/07/31 12:05:13;;;;;;;;;;;25.80;47.50;;;;;;4995282;28;19928;-70
2022/07/31 12:07:40;;;;;;;;;;;25.80;47.40;;;;;;4989370;28;19961;-68
2022/07/31 12:10:07;;;;;;;;;;;25.90;47.40;;;;;;4975558;28;19917;-68
2022/07/31 12:12:32;;;;;;;;;;;25.90;47.20;;;;;;4974146;28;20000;-69
2022/07/31 12:14:58;;;;;;;;;;;26.00;47.10;;;;;;4983680;28;20008;-69
2022/07/31 12:17:24;;;;;;;;;;;26.00;47.00;;;;;;4975719;28;19927;-69
2022/07/31 12:19:49;;;;;;;;;;;26.10;47.00;;;;;;4976281;28;19928;-68
2022/07/31 12:22:15;;;;;;;;;;;26.10;47.10;;;;;;4975171;28;19983;-68
2022/07/31 12:24:42;;;;;;;;;;;26.10;47.00;;;;;;4975591;28;19917;-67
2022/07/31 12:27:07;;;;;;;;;;;26.10;46.90;;;;;;4973422;28;19924;-68
2022/07/31 12:29:34;;;;;;;;;;;26.10;46.90;;;;;;4973898;28;19921;-67
2022/07/31 12:32:00;;;;;;;;;;;26.10;46.90;;;;;;4976269;28;19936;-67
2022/07/31 12:34:25;;;;;;;;;;;26.10;46.90;;;;;;4975468;28;20289;-67
2022/07/31 12:36:58;;;;;;;;;;;26.10;46.80;;;;;;4974734;28;19918;-67
2022/07/31 12:39:23;;;;;;;;;;;26.10;46.80;;;;;;4974280;28;20453;-68
2022/07/31 12:41:49;;;;;;;;;;;26.10;46.80;;;;;;4977982;28;19995;-67
2022/07/31 12:44:15;;;;;;;;;;;26.10;46.70;;;;;;4974371;28;20194;-68
2022/07/31 12:46:40;;;;;;;;;;;26.10;46.70;;;;;;4976023;28;20288;-68
2022/07/31 12:49:07;;;;;;;;;;;26.10;46.70;;;;;;4977434;28;19917;-67
2022/07/31 12:51:32;;;;;;;;;;;26.10;46.70;;;;;;4974927;28;19925;-68
2022/07/31 12:53:58;;;;;;;;;;;26.10;46.70;;;;;;4975167;28;19922;-68
2022/07/31 12:56:24;;;;;;;;;;;26.10;46.60;;;;;;4972850;28;20215;-68
2022/07/31 12:58:49;;;;;;;;;;;26.10;46.70;;;;;;4977233;28;20374;-68
2022/07/31 13:01:15;;;;;;;;;;;26.10;46.60;;;;;;4976621;28;20532;-68
2022/07/31 13:03:40;;;;;;;;;;;26.10;46.70;;;;;;4976464;28;19918;-68
2022/07/31 13:06:07;;;;;;;;;;;26.10;46.70;;;;;;4976326;28;19914;-68
2022/07/31 13:08:33;;;;;;;;;;;26.00;46.70;;;;;;4974083;28;19918;-68
2022/07/31 13:10:58;;;;;;;;;;;26.00;46.70;;;;;;4976603;28;19914;-68
2022/07/31 13:13:24;;;;;;;;;;;26.00;46.70;;;;;;4976134;28;19918;-68
2022/07/31 13:15:50;;;;;;;;;;;26.00;46.70;;;;;;4976236;28;19918;-67
2022/07/31 13:18:16;;;;;;;;;;;26.00;46.70;;;;;;4975299;28;19910;-68
2022/07/31 13:20:41;;;;;;;;;;;26.00;46.70;;;;;;4977207;28;20338;-67
2022/07/31 13:23:07;;;;;;;;;;;26.00;46.70;;;;;;4969063;28;19929;-68
2022/07/31 13:25:32;;;;;;;;;;;26.00;46.70;;;;;;4974418;28;20450;-67
2022/07/31 13:27:58;;;;;;;;;;;26.00;46.70;;;;;;4986107;28;19944;-68
2022/07/31 13:30:23;;;;;;;;;;;26.00;46.60;;;;;;4975303;28;19921;-68
2022/07/31 13:32:49;;;;;;;;;;;26.00;46.70;;;;;;4975875;28;19926;-68
2022/07/31 13:35:17;;;;;;;;;;;26.00;46.70;;;;;;4980531;28;19924;-68
2022/07/31 13:37:43;;;;;;;;;;;26.00;46.70;;;;;;4977872;28;19910;-68
2022/07/31 13:40:08;;;;;;;;;;;26.00;46.70;;;;;;4979330;28;19924;-67
2022/07/31 13:42:34;;;;;;;;;;;26.00;46.70;;;;;;4978316;28;19918;-68
2022/07/31 13:45:01;;;;;;;;;;;26.00;46.70;;;;;;4984930;28;19991;-68
2022/07/31 13:47:26;;;;;;;;;;;26.00;46.70;;;;;;4994055;28;20017;-68
2022/07/31 13:49:52;;;;;;;;;;;26.00;46.70;;;;;;4979278;28;20014;-67
2022/07/31 13:52:18;;;;;;;;;;;26.00;46.70;;;;;;4979652;28;20684;-68
2022/07/31 13:54:46;;;;;;;;;;;26.00;46.70;;;;;;4979918;28;19921;-68
2022/07/31 13:57:12;;;;;;;;;;;26.00;46.70;;;;;;4979309;28;20858;-67
2022/07/31 13:59:38;;;;;;;;;;;26.00;47.20;;;;;;4979326;28;19921;-68
2022/07/31 14:02:03;;;;;;;;;;;26.00;46.70;;;;;;4979089;28;19929;-67
2022/07/31 14:04:30;;;;;;;;;;;26.00;47.30;;;;;;4982070;28;19933;-68
2022/07/31 14:06:55;;;;;;;;;;;26.00;46.70;;;;;;4978187;28;19980;-68
2022/07/31 14:09:21;;;;;;;;;;;25.90;46.70;;;;;;4990335;28;19953;-68
2022/07/31 14:11:46;;;;;;;;;;;25.90;46.70;;;;;;4978000;28;19924;-67
2022/07/31 14:14:12;;;;;;;;;;;26.00;46.70;;;;;;4979767;28;19918;-68
2022/07/31 14:16:37;;;;;;;;;;;26.00;46.70;;;;;;4978449;28;20324;-67